Time;durP1;ratioP1;P1;durP2;ratioP2;P2;SDS_P1;SDS_P2;PMS_P1;PMS_P2;Temp;Humidity;BMP_temperature;BMP_pressure;BME280_temperature;BME280_humidity;BME280_pressure;Samples;Min_cycle;Max_cycle;Signal;HPM_P1;HPM_P2
2021/11/30 00:01:45;;;;;;;5.60;4.40;;;;;;;14.16;48.59;100118.05;1637242;86;21604;-52
2021/11/30 00:04:14;;;;;;;5.47;4.95;;;;;;;14.09;48.73;100113.18;1629465;87;21061;-59
2021/11/30 00:06:41;;;;;;;5.35;4.85;;;;;;;14.03;48.89;100127.40;1626404;87;21060;-55
2021/11/30 00:12:17;;;;;;;5.40;4.87;;;;;;;13.92;48.77;100132.26;1626698;87;21013;-55
2021/11/30 00:14:46;;;;;;;6.08;5.35;;;;;;;13.86;48.57;100135.15;1627411;87;21037;-55
2021/11/30 00:17:14;;;;;;;5.42;4.92;;;;;;;13.79;48.90;100142.86;1630821;87;21105;-56
2021/11/30 00:19:43;;;;;;;5.90;5.03;;;;;;;13.65;49.07;100137.40;1628535;87;21018;-57
2021/11/30 00:22:12;;;;;;;4.60;4.10;;;;;;;13.58;49.61;100128.14;1629754;87;21037;-56
2021/11/30 00:24:38;;;;;;;4.90;4.40;;;;;;;13.55;49.44;100133.49;1629435;87;21049;-55
2021/11/30 00:27:06;;;;;;;5.58;4.40;;;;;;;13.49;49.15;100127.23;1629569;87;21489;-52
2021/11/30 00:29:34;;;;;;;5.67;4.50;;;;;;;13.43;49.04;100122.27;1630784;87;21045;-59
2021/11/30 00:32:02;;;;;;;5.87;5.28;;;;;;;13.40;48.82;100110.63;1632347;87;21502;-56
2021/11/30 00:34:29;;;;;;;6.90;5.50;;;;;;;13.36;49.00;100113.84;1632049;87;21053;-52
2021/11/30 00:36:55;;;;;;;7.30;5.60;;;;;;;13.28;48.41;100110.71;1630521;87;21060;-51
2021/11/30 00:39:22;;;;;;;6.55;5.33;;;;;;;13.19;48.85;100119.41;1631358;86;21537;-54
2021/11/30 00:41:58;;;;;;;6.50;5.42;;;;;;;13.15;49.29;100117.36;1631729;87;21141;-54
2021/11/30 00:44:28;;;;;;;7.10;5.42;;;;;;;13.12;49.27;100119.26;1622807;87;21025;-52
2021/11/30 00:46:56;;;;;;;6.15;5.55;;;;;;;13.08;49.24;100116.76;1633441;87;20998;-52
2021/11/30 00:49:25;;;;;;;6.75;6.03;;;;;;;13.00;49.22;100100.53;1632203;87;21119;-56
2021/11/30 00:51:53;;;;;;;5.67;5.10;;;;;;;12.93;49.14;100093.03;1690314;83;21031;-52
2021/11/30 00:54:21;;;;;;;5.37;4.87;;;;;;;12.85;49.54;100099.03;1698802;83;21022;-53
2021/11/30 00:56:49;;;;;;;7.80;6.00;;;;;;;12.80;50.05;100107.04;1701281;83;21045;-55
2021/11/30 00:59:15;;;;;;;9.13;5.37;;;;;;;12.79;49.85;100111.89;1755997;80;21011;-56
2021/11/30 01:01:44;;;;;;;5.78;5.17;;;;;;;12.79;49.90;100115.80;1746446;82;21023;-52
2021/11/30 01:04:11;;;;;;;7.08;5.45;;;;;;;12.76;49.73;100117.22;1746489;81;21416;-58
2021/11/30 01:06:38;;;;;;;6.10;5.40;;;;;;;12.74;49.95;100119.04;1752171;81;21067;-53
2021/11/30 01:09:06;;;;;;;6.22;5.03;;;;;;;12.71;50.10;100119.18;1763652;81;21035;-54
2021/11/30 01:11:33;;;;;;;6.55;5.50;;;;;;;12.69;50.38;100121.00;1755489;81;21007;-56
2021/11/30 01:13:59;;;;;;;5.87;5.10;;;;;;;12.69;50.10;100118.39;1754730;81;21523;-52
2021/11/30 01:16:26;;;;;;;7.60;6.05;;;;;;;12.68;50.42;100123.66;1758378;81;21105;-59
2021/11/30 01:18:53;;;;;;;5.72;5.10;;;;;;;12.68;50.31;100123.66;1756907;81;21066;-57
2021/11/30 01:21:19;;;;;;;5.67;4.75;;;;;;;12.67;50.36;100128.05;1762257;81;20995;-54
2021/11/30 01:23:46;;;;;;;9.15;5.25;;;;;;;12.69;50.50;100127.98;1760894;81;21031;-55
2021/11/30 01:26:12;;;;;;;5.90;5.30;;;;;;;12.70;50.58;100124.44;1755424;81;21102;-56
2021/11/30 01:28:39;;;;;;;8.13;5.30;;;;;;;12.70;50.51;100126.60;1752798;81;21027;-56
2021/11/30 01:31:05;;;;;;;5.92;5.08;;;;;;;12.72;50.63;100134.36;1757107;81;21043;-56
2021/11/30 01:33:35;;;;;;;6.35;5.10;;;;;;;12.70;50.79;100133.13;1758252;81;21555;-54
2021/11/30 01:36:02;;;;;;;6.85;5.00;;;;;;;12.71;50.83;100134.84;1757964;81;20999;-53
2021/11/30 01:38:31;;;;;;;6.60;4.83;;;;;;;12.71;51.07;100143.13;1755693;81;21456;-55
2021/11/30 01:41:00;;;;;;;5.62;4.72;;;;;;;12.73;50.52;100149.98;1760085;81;21034;-56
2021/11/30 01:43:35;;;;;;;5.12;4.62;;;;;;;12.74;50.40;100158.64;1757367;81;21038;-56
2021/11/30 01:46:11;;;;;;;5.60;5.03;;;;;;;12.72;50.46;100153.94;1717428;83;21035;-53
2021/11/30 01:51:23;;;;;;;5.75;5.15;;;;;;;12.75;50.55;100162.52;1757035;81;20972;-57
2021/11/30 01:53:50;;;;;;;5.75;5.17;;;;;;;12.77;50.21;100173.75;1758142;81;20979;-56
2021/11/30 01:56:18;;;;;;;6.85;4.97;;;;;;;12.79;50.16;100186.73;1759336;81;21070;-54
2021/11/30 01:58:44;;;;;;;7.28;5.12;;;;;;;12.79;50.16;100198.04;1760100;81;20983;-53
2021/11/30 02:01:11;;;;;;;5.75;5.25;;;;;;;12.78;50.29;100196.33;1764973;81;21011;-57
2021/11/30 02:03:38;;;;;;;5.08;4.22;;;;;;;12.79;50.52;100198.04;1759909;81;20984;-56
2021/11/30 02:06:04;;;;;;;5.67;4.60;;;;;;;12.80;49.63;100202.34;1760057;81;21499;-57
2021/11/30 02:08:33;;;;;;;5.05;4.33;;;;;;;12.78;49.33;100200.23;1758406;81;21011;-57
2021/11/30 02:10:59;;;;;;;5.83;4.10;;;;;;;12.78;48.81;100193.71;1758591;81;21003;-55
2021/11/30 02:13:26;;;;;;;5.95;4.50;;;;;;;12.77;48.63;100197.25;1759211;81;20987;-54
2021/11/30 02:15:58;;;;;;;4.90;4.33;;;;;;;12.75;48.54;100204.30;1766381;81;21066;-54
2021/11/30 02:18:24;;;;;;;5.10;4.30;;;;;;;12.71;48.62;100207.08;1759811;81;21030;-56
2021/11/30 02:20:57;;;;;;;5.17;4.45;;;;;;;12.70;49.01;100211.44;1764693;81;21023;-58
2021/11/30 02:23:47;;;;;;;5.28;4.55;;;;;;;12.68;49.15;100205.43;1764890;81;20999;-56
2021/11/30 02:26:14;;;;;;;7.05;5.05;;;;;;;12.65;49.15;100213.36;1763666;81;21035;-58
2021/11/30 02:28:45;;;;;;;5.53;5.00;;;;;;;12.63;49.58;100216.48;1756399;81;21035;-53
2021/11/30 02:31:15;;;;;;;5.70;4.67;;;;;;;12.62;50.02;100216.55;1757312;81;21507;-54
2021/11/30 02:33:44;;;;;;;4.90;4.33;;;;;;;12.64;50.08;100217.34;1762843;81;20980;-53
2021/11/30 02:36:31;;;;;;;5.83;4.90;;;;;;;12.64;49.89;100216.05;1757917;81;20971;-53
2021/11/30 02:39:00;;;;;;;5.15;4.50;;;;;;;12.62;49.98;100214.80;1721365;83;20970;-59
2021/11/30 02:41:27;;;;;;;5.50;4.22;;;;;;;12.60;49.24;100211.41;1721616;83;21078;-56
2021/11/30 02:43:54;;;;;;;5.92;4.70;;;;;;;12.59;48.71;100212.78;1658806;86;21109;-56
2021/11/30 02:46:42;;;;;;;6.37;5.50;;;;;;;12.56;48.69;100213.73;1715647;83;21083;-54
2021/11/30 02:49:11;;;;;;;6.78;4.78;;;;;;;12.57;48.65;100214.59;1721922;83;21514;-54
2021/11/30 02:51:41;;;;;;;5.42;4.90;;;;;;;12.59;48.41;100219.30;1658756;86;21013;-53
2021/11/30 02:54:10;;;;;;;5.87;5.25;;;;;;;12.58;48.02;100223.66;1716909;83;20983;-56
2021/11/30 02:56:45;;;;;;;5.65;5.15;;;;;;;12.57;47.82;100225.03;1721165;83;21045;-56
2021/11/30 02:59:12;;;;;;;6.87;5.22;;;;;;;12.53;47.94;100221.66;1575148;89;21591;-56
2021/11/30 03:01:41;;;;;;;7.05;5.58;;;;;;;12.47;47.82;100228.42;1588195;90;21082;-56
2021/11/30 03:04:11;;;;;;;4.80;4.30;;;;;;;12.42;47.76;100221.24;1588495;90;21076;-52
2021/11/30 03:06:39;;;;;;;6.50;5.10;;;;;;;12.37;47.78;100220.55;1584641;90;21039;-55
2021/11/30 03:09:06;;;;;;;4.97;4.42;;;;;;;12.32;47.54;100215.97;1585660;90;21135;-55
2021/11/30 03:11:32;;;;;;;5.30;4.55;;;;;;;12.28;47.50;100215.70;1580122;90;21021;-52
2021/11/30 03:13:59;;;;;;;4.53;4.12;;;;;;;12.25;47.15;100218.40;1587088;90;21032;-52
2021/11/30 03:16:27;;;;;;;5.00;4.50;;;;;;;12.19;46.81;100223.84;1586296;90;21068;-55
2021/11/30 03:18:54;;;;;;;6.00;4.80;;;;;;;12.13;46.83;100217.55;1587671;90;21072;-52
2021/11/30 03:21:21;;;;;;;5.20;4.70;;;;;;;12.09;46.51;100227.70;1588352;90;21599;-57
2021/11/30 03:23:48;;;;;;;4.55;4.15;;;;;;;12.06;46.51;100235.61;1588306;90;21121;-52
2021/11/30 03:26:15;;;;;;;5.87;5.12;;;;;;;12.03;46.59;100244.42;1587121;90;21552;-56
2021/11/30 03:28:43;;;;;;;6.58;5.40;;;;;;;12.01;46.93;100245.38;1585596;90;21084;-52
2021/11/30 03:31:31;;;;;;;6.78;5.25;;;;;;;11.96;47.27;100237.71;1585781;90;21075;-58
2021/11/30 03:34:00;;;;;;;5.75;5.25;;;;;;;11.92;47.25;100238.73;1582928;90;21137;-51
2021/11/30 03:36:29;;;;;;;6.92;5.55;;;;;;;11.89;47.75;100248.42;1593136;89;21060;-55
2021/11/30 03:38:57;;;;;;;6.42;5.53;;;;;;;11.88;48.04;100251.91;1572839;90;21025;-53
2021/11/30 03:41:25;;;;;;;6.83;5.92;;;;;;;11.89;48.19;100258.84;1578276;90;21037;-55
2021/11/30 03:43:51;;;;;;;7.75;6.33;;;;;;;11.89;48.27;100270.11;1566888;90;21597;-58
2021/11/30 03:46:18;;;;;;;7.58;6.47;;;;;;;11.91;48.70;100270.90;1564058;91;21111;-55
2021/11/30 03:48:44;;;;;;;8.18;7.35;;;;;;;11.96;48.76;100278.57;1586713;87;21064;-56
2021/11/30 03:51:11;;;;;;;8.25;6.97;;;;;;;12.00;48.83;100282.77;1652727;87;21120;-56
2021/11/30 03:53:38;;;;;;;9.40;6.47;;;;;;;12.01;48.73;100277.97;1652740;86;21016;-53
2021/11/30 03:56:05;;;;;;;8.35;6.62;;;;;;;12.01;48.62;100274.06;1687561;84;21034;-52
2021/11/30 03:58:32;;;;;;;7.55;6.53;;;;;;;12.00;48.83;100274.95;1695033;84;21050;-55
2021/11/30 04:00:58;;;;;;;7.35;6.42;;;;;;;11.98;48.73;100271.55;1712773;84;20971;-52
2021/11/30 04:03:28;;;;;;;6.72;5.75;;;;;;;11.98;49.01;100281.97;1713415;84;21054;-56
2021/11/30 04:05:54;;;;;;;20.20;7.50;;;;;;;11.94;49.21;100278.63;1701202;83;21494;-57
2021/11/30 04:08:21;;;;;;;7.92;6.60;;;;;;;11.92;49.40;100282.19;1713521;84;21015;-59
2021/11/30 04:10:47;;;;;;;7.20;6.30;;;;;;;11.93;49.48;100285.21;1713202;84;21086;-59
2021/11/30 04:13:14;;;;;;;7.75;6.83;;;;;;;11.92;49.71;100290.01;1713213;84;21042;-53
2021/11/30 04:15:41;;;;;;;7.62;6.58;;;;;;;11.90;50.10;100292.67;1713281;84;21030;-57
2021/11/30 04:18:08;;;;;;;7.37;6.58;;;;;;;11.91;50.15;100292.23;1713129;84;21118;-52
2021/11/30 04:20:34;;;;;;;8.93;7.00;;;;;;;11.89;49.74;100300.56;1713277;83;21019;-57
2021/11/30 04:23:01;;;;;;;8.05;6.75;;;;;;;11.84;49.60;100302.45;1713343;84;20995;-55
2021/11/30 04:25:28;;;;;;;8.15;6.70;;;;;;;11.80;49.49;100314.75;1713571;84;21069;-53
2021/11/30 04:27:55;;;;;;;8.68;6.37;;;;;;;11.81;49.71;100315.61;1712929;84;21005;-54
2021/11/30 04:30:21;;;;;;;9.30;7.40;;;;;;;11.80;49.21;100313.89;1713303;84;21046;-52
2021/11/30 04:32:50;;;;;;;7.80;7.00;;;;;;;11.76;49.03;100310.99;1712980;84;21618;-52
2021/11/30 04:35:16;;;;;;;10.68;8.13;;;;;;;11.71;48.96;100312.44;1710363;84;21050;-57
2021/11/30 04:37:43;;;;;;;6.97;6.28;;;;;;;11.67;49.11;100312.59;1713145;84;21003;-55
2021/11/30 04:40:11;;;;;;;7.83;6.72;;;;;;;11.67;49.31;100326.92;1713244;83;21038;-52
2021/11/30 04:42:42;;;;;;;10.10;7.33;;;;;;;11.67;49.41;100337.34;1751153;81;21038;-54
2021/11/30 04:45:19;;;;;;;9.98;7.30;;;;;;;11.66;49.31;100329.11;1762378;81;21070;-52
2021/11/30 04:47:42;;;;;;;9.58;6.45;;;;;;;11.60;49.35;100311.07;1723439;83;21512;-52
2021/11/30 04:50:19;;;;;;;9.25;6.33;;;;;;;11.54;49.35;100308.67;1757985;81;20998;-51
2021/11/30 04:52:41;;;;;;;9.55;6.87;;;;;;;11.48;49.13;100319.29;1684486;84;21023;-58
2021/11/30 04:55:08;;;;;;;8.00;6.58;;;;;;;11.41;49.42;100329.91;1725624;82;21513;-51
2021/11/30 04:57:35;;;;;;;9.35;7.33;;;;;;;11.43;49.36;100329.85;1764517;81;21098;-52
2021/11/30 05:00:02;;;;;;;8.08;6.72;;;;;;;11.41;49.21;100337.73;1765528;81;21550;-52
2021/11/30 05:02:31;;;;;;;7.08;6.37;;;;;;;11.41;48.62;100331.21;1762721;81;20984;-52
2021/11/30 05:04:57;;;;;;;9.13;6.83;;;;;;;11.37;48.50;100328.27;1763381;81;21035;-52
2021/11/30 05:07:24;;;;;;;8.88;7.25;;;;;;;11.36;48.31;100325.72;1751153;81;20987;-51
2021/11/30 05:09:51;;;;;;;7.30;6.60;;;;;;;11.27;48.06;100329.47;1760098;81;21038;-56
2021/11/30 05:12:17;;;;;;;8.05;6.97;;;;;;;11.21;48.19;100333.56;1761164;81;21042;-56
2021/11/30 05:14:45;;;;;;;8.88;7.15;;;;;;;11.15;48.40;100332.45;1760383;81;21576;-52
2021/11/30 05:17:12;;;;;;;8.00;6.62;;;;;;;11.10;48.16;100339.56;1749366;81;21055;-55
2021/11/30 05:19:39;;;;;;;8.58;7.12;;;;;;;11.03;47.93;100334.12;1756964;81;21499;-54
2021/11/30 05:22:10;;;;;;;8.90;7.37;;;;;;;10.98;48.30;100339.94;1757870;81;21074;-52
2021/11/30 05:24:35;;;;;;;8.15;7.22;;;;;;;10.95;48.52;100337.41;1759813;81;21027;-57
2021/11/30 05:27:04;;;;;;;11.53;7.58;;;;;;;10.95;48.77;100340.02;1756959;81;21015;-56
2021/11/30 05:29:31;;;;;;;9.05;6.75;;;;;;;10.99;48.85;100342.93;1756324;81;21559;-52
2021/11/30 05:31:57;;;;;;;9.90;7.25;;;;;;;11.01;48.54;100347.64;1756712;81;21039;-53
2021/11/30 05:34:24;;;;;;;8.00;7.20;;;;;;;11.01;48.57;100341.14;1759463;81;21019;-55
2021/11/30 05:36:50;;;;;;;8.80;7.37;;;;;;;10.99;48.48;100337.73;1755781;81;21575;-57
2021/11/30 05:39:16;;;;;;;9.73;7.87;;;;;;;10.93;48.31;100327.94;1757362;81;20995;-58
2021/11/30 05:41:43;;;;;;;7.75;6.92;;;;;;;10.83;48.64;100332.58;1761539;81;21051;-52
2021/11/30 05:44:10;;;;;;;8.90;7.37;;;;;;;10.75;48.97;100337.16;1758513;81;21480;-51
2021/11/30 05:46:37;;;;;;;8.28;7.10;;;;;;;10.70;48.98;100326.02;1756179;81;21054;-54
2021/11/30 05:49:04;;;;;;;9.43;7.50;;;;;;;10.70;48.67;100330.36;1759857;81;21019;-58
2021/11/30 05:51:33;;;;;;;8.35;7.17;;;;;;;10.67;48.67;100327.42;1755522;81;21567;-52
2021/11/30 05:54:02;;;;;;;8.20;7.40;;;;;;;10.62;48.62;100317.58;1756418;81;21735;-56
2021/11/30 05:56:28;;;;;;;8.65;7.28;;;;;;;10.56;48.65;100303.45;1763104;81;21031;-51
2021/11/30 05:58:55;;;;;;;8.95;7.42;;;;;;;10.52;49.04;100279.72;1755964;81;21018;-52
2021/11/30 06:01:30;;;;;;;8.18;6.95;;;;;;;10.53;48.72;100261.93;1767255;81;20967;-52
2021/11/30 06:03:59;;;;;;;7.72;6.92;;;;;;;10.52;49.03;100266.27;1773765;81;20995;-52
2021/11/30 06:06:32;;;;;;;10.00;8.00;;;;;;;10.53;49.25;100265.83;1760015;81;21475;-56
2021/11/30 06:08:59;;;;;;;7.90;6.67;;;;;;;10.51;49.21;100272.80;1740188;81;21085;-52
2021/11/30 06:11:26;;;;;;;9.70;7.12;;;;;;;10.50;49.52;100284.97;1669415;85;21078;-54
2021/11/30 06:13:52;;;;;;;7.97;7.15;;;;;;;10.49;49.60;100295.40;1748463;82;21010;-54
2021/11/30 06:16:20;;;;;;;7.95;6.42;;;;;;;10.52;49.63;100309.20;1668545;85;21657;-58
2021/11/30 06:18:47;;;;;;;8.88;7.28;;;;;;;10.52;49.30;100303.13;1696113;84;21051;-57
2021/11/30 06:21:14;;;;;;;7.90;7.00;;;;;;;10.53;49.39;100307.45;1742481;80;20975;-52
2021/11/30 06:23:41;;;;;;;10.00;7.05;;;;;;;10.56;49.35;100312.55;1669437;85;21055;-54
2021/11/30 06:26:08;;;;;;;10.95;7.33;;;;;;;10.57;49.23;100304.70;1666061;85;21071;-52
2021/11/30 06:28:36;;;;;;;9.45;7.17;;;;;;;10.57;48.61;100301.27;1719290;83;21027;-52
2021/11/30 06:31:04;;;;;;;8.98;7.33;;;;;;;10.54;48.72;100290.94;1729912;82;21578;-55
2021/11/30 06:33:32;;;;;;;10.25;7.28;;;;;;;10.52;48.32;100295.33;1740555;81;21070;-55
2021/11/30 06:35:59;;;;;;;10.08;7.15;;;;;;;10.47;48.80;100289.39;1739242;81;21029;-55
2021/11/30 06:38:26;;;;;;;6.92;6.22;;;;;;;10.44;48.58;100279.95;1689909;84;21034;-56
2021/11/30 06:40:52;;;;;;;8.28;6.67;;;;;;;10.42;48.64;100279.14;1684283;84;21047;-58
2021/11/30 06:43:19;;;;;;;8.18;6.90;;;;;;;10.44;48.76;100282.98;1669921;85;21035;-51
2021/11/30 06:45:46;;;;;;;8.20;6.97;;;;;;;10.48;48.35;100291.11;1651782;85;21069;-52
2021/11/30 06:48:13;;;;;;;7.87;6.65;;;;;;;10.47;48.71;100290.69;1725332;82;21050;-51
2021/11/30 06:50:41;;;;;;;8.23;7.12;;;;;;;10.49;48.69;100305.80;1745091;80;21066;-52
2021/11/30 06:53:07;;;;;;;9.20;7.12;;;;;;;10.49;48.55;100309.27;1686091;85;21042;-55
2021/11/30 06:55:34;;;;;;;8.15;6.40;;;;;;;10.50;48.43;100308.83;1730304;82;21077;-52
2021/11/30 06:58:00;;;;;;;9.85;7.55;;;;;;;10.51;48.36;100315.72;1690294;84;21085;-54
2021/11/30 07:00:27;;;;;;;8.33;7.40;;;;;;;10.51;48.43;100315.28;1703802;83;21476;-53
2021/11/30 07:02:55;;;;;;;8.53;7.47;;;;;;;10.54;48.33;100316.95;1684094;84;21020;-57
2021/11/30 07:10:35;;;;;;;8.03;7.10;;;;;;;10.59;48.36;100312.48;1743058;82;20991;-54
2021/11/30 07:15:37;;;;;;;10.23;8.55;;;;;;;10.59;47.83;100300.30;1743398;82;21019;-51
2021/11/30 07:18:04;;;;;;;9.70;8.75;;;;;;;10.58;48.07;100289.50;1743259;81;21472;-56
2021/11/30 07:20:31;;;;;;;8.73;7.65;;;;;;;10.57;48.12;100292.16;1743216;82;20943;-51
2021/11/30 07:22:59;;;;;;;9.30;8.05;;;;;;;10.58;48.43;100284.74;1743000;82;21035;-52
2021/11/30 07:25:25;;;;;;;10.85;8.75;;;;;;;10.59;48.59;100278.66;1743158;82;21499;-55
2021/11/30 07:27:53;;;;;;;10.32;8.43;;;;;;;10.59;48.31;100276.88;1742993;82;21083;-54
2021/11/30 07:30:20;;;;;;;10.53;8.65;;;;;;;10.59;48.55;100272.16;1743771;82;20998;-52
2021/11/30 07:32:47;;;;;;;11.20;8.83;;;;;;;10.61;48.61;100274.27;1742955;82;21031;-56
2021/11/30 07:35:14;;;;;;;9.30;8.30;;;;;;;10.61;48.46;100266.45;1743306;81;20983;-59
2021/11/30 07:37:41;;;;;;;9.75;8.08;;;;;;;10.61;48.84;100266.45;1737068;82;21487;-52
2021/11/30 07:40:10;;;;;;;9.20;8.15;;;;;;;10.59;48.29;100266.95;1743140;82;20979;-56
2021/11/30 07:42:37;;;;;;;9.20;7.75;;;;;;;10.56;48.57;100269.62;1743249;81;21028;-55
2021/11/30 07:45:04;;;;;;;11.35;8.23;;;;;;;10.54;48.58;100271.42;1743239;81;20979;-52
2021/11/30 07:47:33;;;;;;;9.93;7.97;;;;;;;10.51;48.46;100266.29;1743171;82;21006;-54
2021/11/30 07:50:00;;;;;;;9.35;7.90;;;;;;;10.50;48.33;100261.56;1743072;82;21447;-58
2021/11/30 07:52:26;;;;;;;9.10;8.20;;;;;;;10.49;48.45;100264.19;1743089;82;21010;-55
2021/11/30 07:54:53;;;;;;;9.23;7.47;;;;;;;10.45;48.38;100271.23;1742900;82;21027;-56
2021/11/30 07:57:22;;;;;;;11.60;7.72;;;;;;;10.44;48.25;100271.28;1743143;82;21043;-52
2021/11/30 07:59:48;;;;;;;9.33;8.13;;;;;;;10.41;48.28;100283.06;1740767;82;20991;-55
2021/11/30 08:02:15;;;;;;;9.00;8.10;;;;;;;10.39;48.41;100278.35;1766983;80;21087;-53
2021/11/30 08:04:42;;;;;;;11.03;8.58;;;;;;;10.36;48.45;100277.16;1765520;81;21050;-57
2021/11/30 08:07:08;;;;;;;10.93;8.20;;;;;;;10.35;48.28;100268.94;1760274;81;21007;-51
2021/11/30 08:09:36;;;;;;;9.50;7.75;;;;;;;10.33;48.01;100275.93;1770635;81;21491;-54
2021/11/30 08:12:05;;;;;;;10.95;8.38;;;;;;;10.29;48.17;100276.91;1763595;80;21018;-58
2021/11/30 08:14:33;;;;;;;9.78;7.90;;;;;;;10.28;48.56;100280.42;1767149;81;21015;-58
2021/11/30 08:17:00;;;;;;;11.30;8.85;;;;;;;10.31;48.85;100277.72;1755573;81;21023;-59
2021/11/30 08:19:28;;;;;;;10.75;7.85;;;;;;;10.32;48.71;100266.00;1761576;81;21435;-58
2021/11/30 08:21:54;;;;;;;11.22;7.83;;;;;;;10.25;48.78;100264.89;1764373;81;21066;-58
2021/11/30 08:24:21;;;;;;;11.40;8.25;;;;;;;10.16;48.98;100258.67;1756088;80;21488;-58
2021/11/30 08:26:48;;;;;;;9.48;7.10;;;;;;;10.07;48.84;100260.17;1755329;81;21002;-58
2021/11/30 08:29:15;;;;;;;11.85;7.75;;;;;;;10.01;48.81;100249.95;1711803;84;21417;-55
2021/11/30 08:31:42;;;;;;;10.30;8.55;;;;;;;9.97;49.12;100254.83;1764261;81;21023;-55
2021/11/30 08:34:08;;;;;;;12.78;8.75;;;;;;;9.96;48.93;100264.80;1757105;81;21038;-60
2021/11/30 08:36:35;;;;;;;13.15;8.85;;;;;;;9.96;48.95;100266.10;1765856;81;21085;-55
2021/11/30 08:39:03;;;;;;;12.30;8.08;;;;;;;9.96;48.87;100263.06;1763770;81;21519;-56
2021/11/30 08:41:30;;;;;;;11.53;8.65;;;;;;;9.92;49.08;100263.18;1765823;81;20996;-57
2021/11/30 08:43:56;;;;;;;8.23;7.33;;;;;;;9.89;48.92;100260.68;1701044;83;21082;-57
2021/11/30 08:46:23;;;;;;;9.65;7.35;;;;;;;9.85;48.83;100255.55;1712594;82;20979;-58
2021/11/30 08:48:50;;;;;;;7.70;6.90;;;;;;;9.84;49.06;100251.27;1703797;84;21495;-59
2021/11/30 08:51:17;;;;;;;8.05;6.72;;;;;;;9.82;48.78;100253.05;1729262;82;21055;-58
2021/11/30 08:53:44;;;;;;;19.37;12.63;;;;;;;9.81;48.85;100256.53;1719526;82;20983;-54
2021/11/30 08:56:11;;;;;;;11.38;8.85;;;;;;;9.81;49.25;100245.27;1707602;83;21456;-61
2021/11/30 08:58:39;;;;;;;9.18;7.37;;;;;;;9.81;48.51;100242.67;1764114;81;21066;-60
2021/11/30 09:01:05;;;;;;;10.43;7.47;;;;;;;9.78;48.25;100255.33;1770836;81;21000;-58
2021/11/30 09:03:33;;;;;;;13.80;6.72;;;;;;;9.75;48.37;100254.53;1747809;81;21022;-58
2021/11/30 09:06:00;;;;;;;7.65;6.50;;;;;;;9.72;47.97;100252.89;1743279;81;21039;-54
2021/11/30 09:08:28;;;;;;;10.13;6.40;;;;;;;9.69;48.25;100249.05;1760625;81;21146;-59
2021/11/30 09:10:55;;;;;;;7.28;6.35;;;;;;;9.68;48.41;100240.87;1761356;81;21055;-59
2021/11/30 09:13:22;;;;;;;6.75;5.72;;;;;;;9.66;48.51;100227.52;1748056;81;21034;-58
2021/11/30 09:15:50;;;;;;;7.55;6.08;;;;;;;9.63;48.37;100219.78;1752726;81;21036;-61
2021/11/30 09:18:17;;;;;;;13.15;8.50;;;;;;;9.63;48.84;100210.25;1707257;84;21038;-61
2021/11/30 09:20:45;;;;;;;10.63;8.40;;;;;;;9.64;49.09;100205.45;1702773;84;21019;-55
2021/11/30 09:23:11;;;;;;;10.65;8.30;;;;;;;9.63;48.96;100201.16;1699120;84;21028;-59
2021/11/30 09:25:39;;;;;;;12.47;8.48;;;;;;;9.62;48.98;100207.23;1694303;84;21044;-57
2021/11/30 09:28:06;;;;;;;13.22;9.03;;;;;;;9.58;49.01;100201.72;1686080;84;21013;-57
2021/11/30 09:30:37;;;;;;;10.65;8.68;;;;;;;9.55;49.25;100186.67;1690588;84;21493;-58
2021/11/30 09:33:04;;;;;;;;;;;;;;;9.52;49.39;100170.72;1690460;84;20984;-55
2021/11/30 09:35:32;;;;;;;9.95;8.15;;;;;;;9.50;49.52;100166.01;1691963;84;20114;-55
2021/11/30 09:37:58;;;;;;;11.10;8.93;;;;;;;9.48;49.51;100166.49;1693163;84;21043;-57
2021/11/30 09:40:28;;;;;;;9.58;8.33;;;;;;;9.50;49.69;100169.08;1687741;84;21516;-55
2021/11/30 09:42:55;;;;;;;10.48;7.55;;;;;;;9.47;49.65;100164.81;1706683;84;21015;-55
2021/11/30 09:45:24;;;;;;;10.10;7.55;;;;;;;9.45;49.49;100160.10;1700602;84;21178;-59
2021/11/30 09:47:51;;;;;;;11.10;7.30;;;;;;;9.42;49.32;100160.17;1700546;84;21062;-61
2021/11/30 09:50:21;;;;;;;9.18;7.70;;;;;;;9.42;49.78;100170.55;1747566;80;21037;-57
2021/11/30 09:52:53;;;;;;;10.18;7.30;;;;;;;9.38;49.32;100158.55;1758095;80;21546;-55
2021/11/30 09:55:18;;;;;;;12.80;7.50;;;;;;;9.36;49.48;100147.79;1754832;80;21489;-58
2021/11/30 09:57:46;;;;;;;9.33;7.78;;;;;;;9.32;49.56;100140.53;1768065;81;21046;-56
2021/11/30 10:00:13;;;;;;;8.98;6.83;;;;;;;9.30;49.96;100146.21;1759261;81;20943;-59
2021/11/30 10:02:41;;;;;;;8.70;7.17;;;;;;;9.29;49.79;100156.21;1761895;80;21010;-56
2021/11/30 10:05:09;;;;;;;10.78;8.55;;;;;;;9.28;50.11;100146.70;1756052;81;21077;-58
2021/11/30 10:07:43;;;;;;;10.90;8.23;;;;;;;9.28;50.16;100127.23;1775762;81;21517;-54
2021/11/30 10:10:16;;;;;;;11.88;7.62;;;;;;;9.28;50.28;100132.86;1698669;83;21015;-60
2021/11/30 10:12:47;;;;;;;13.50;9.50;;;;;;;9.28;50.61;100133.72;1571586;89;21572;-56
2021/11/30 10:15:14;;;;;;;11.83;8.60;;;;;;;9.30;51.25;100150.11;1566486;91;21082;-58
2021/11/30 10:17:44;;;;;;;13.95;9.30;;;;;;;9.33;51.17;100157.83;1570283;89;21109;-57
2021/11/30 10:20:12;;;;;;;20.77;11.33;;;;;;;9.35;50.82;100156.05;1568348;91;21537;-56
2021/11/30 10:25:27;;;;;;;11.18;9.25;;;;;;;9.34;50.96;100163.41;1525051;92;21062;-58
2021/11/30 10:27:58;;;;;;;11.33;8.45;;;;;;;9.36;50.74;100156.44;1473479;96;21146;-55
2021/11/30 10:30:27;;;;;;;11.17;8.87;;;;;;;9.37;50.86;100152.10;1488735;96;21101;-55
2021/11/30 10:32:56;;;;;;;9.23;7.33;;;;;;;9.35;50.59;100154.75;1487155;96;21558;-54
2021/11/30 10:35:25;;;;;;;8.05;6.75;;;;;;;9.33;49.66;100161.73;1480785;96;21617;-56
2021/11/30 10:37:53;;;;;;;8.75;6.80;;;;;;;9.30;49.35;100166.98;1481328;96;21103;-58
2021/11/30 10:40:26;;;;;;;7.62;6.00;;;;;;;9.27;48.96;100169.67;1487811;96;21151;-58
2021/11/30 10:42:58;;;;;;;8.35;6.90;;;;;;;9.23;49.60;100166.75;1491645;96;21101;-61
2021/11/30 10:45:43;;;;;;;7.87;6.20;;;;;;;9.22;49.71;100168.92;1486055;96;21150;-55
2021/11/30 10:48:18;;;;;;;7.90;5.60;;;;;;;9.21;49.67;100165.08;1480021;96;21187;-63
2021/11/30 10:50:52;;;;;;;8.05;5.85;;;;;;;9.18;49.42;100167.30;1412573;100;21138;-59
2021/11/30 10:53:25;;;;;;;7.47;6.45;;;;;;;9.18;49.27;100168.59;1405509;102;21149;-59
2021/11/30 10:55:56;;;;;;;8.08;6.33;;;;;;;9.16;49.14;100169.08;1384560;103;21174;-59
2021/11/30 10:58:27;;;;;;;10.72;6.87;;;;;;;9.14;49.61;100159.19;1345321;106;21722;-58
2021/11/30 11:00:56;;;;;;;7.17;6.00;;;;;;;9.13;49.23;100147.08;1313585;109;21298;-58
2021/11/30 11:03:24;;;;;;;7.90;6.08;;;;;;;9.12;48.82;100151.88;1337906;107;21289;-57
2021/11/30 11:08:51;;;;;;;7.80;6.30;;;;;;;9.12;49.20;100133.72;1343097;106;21848;-58
2021/11/30 11:11:33;;;;;;;8.23;6.30;;;;;;;9.13;49.00;100137.17;1337634;106;21224;-57
2021/11/30 11:14:04;;;;;;;9.33;6.83;;;;;;;9.11;49.30;100129.40;1277408;112;21203;-56
2021/11/30 11:16:36;;;;;;;6.92;6.15;;;;;;;9.10;49.37;100143.28;1296702;110;21227;-58
2021/11/30 11:19:07;;;;;;;10.28;8.80;;;;;;;9.09;49.51;100133.78;1312296;109;21277;-54
2021/11/30 11:21:38;;;;;;;17.82;13.22;;;;;;;9.08;49.57;100132.53;1331291;104;21116;-57
2021/11/30 11:24:14;;;;;;;8.47;7.17;;;;;;;9.06;49.28;100126.09;1330730;108;21207;-56
2021/11/30 11:26:47;;;;;;;8.90;5.95;;;;;;;9.07;48.79;100121.29;1330414;108;21134;-58
2021/11/30 11:29:18;;;;;;;10.20;6.62;;;;;;;9.06;48.54;100109.66;1332380;107;21154;-55
2021/11/30 11:31:52;;;;;;;10.13;7.10;;;;;;;9.06;48.54;100107.92;1334755;106;21236;-58
2021/11/30 11:34:21;;;;;;;9.15;6.40;;;;;;;9.05;49.35;100107.97;1334678;106;21282;-56
2021/11/30 11:36:49;;;;;;;8.00;6.47;;;;;;;9.08;48.79;100096.20;1343183;106;21597;-57
2021/11/30 11:39:18;;;;;;;12.90;8.45;;;;;;;9.05;48.85;100095.00;1339713;106;21672;-56
2021/11/30 11:41:51;;;;;;;8.98;6.85;;;;;;;9.01;48.67;100094.20;1331487;106;21234;-53
2021/11/30 11:44:18;;;;;;;15.23;9.35;;;;;;;8.96;49.09;100093.48;1337811;106;21140;-57
2021/11/30 11:46:47;;;;;;;9.05;6.20;;;;;;;8.93;49.43;100089.66;1349504;103;21148;-54
2021/11/30 11:49:13;;;;;;;11.10;6.83;;;;;;;8.89;49.42;100098.41;1379785;99;21182;-57